Pagrindinis puslapis
METAR-TAF:

METAR-TAF

Oro uostai :

Mendosa, Argentina

platuma: 32-50S, ilguma: 068-47W, Aukštis: 705 m

Dabartinis oras

Ataskaita buvo paskelbta 49 minutes, ne 19:00 UTC
Vėjas 4 kt iš Rytų
Temperatūra 28°C
Drėgmė 27%
Slėgis 1018 hPa
Matomumas 10 km arba daugiau
nėra debesų žemiau 1500 m ir nėra kamuolinių lietaus debesų

METAR: SAME 201900Z 09004KT CAVOK 28/07 Q1018

Laikas: 16:49 (19:49 UTC)

Prognozė

Ataskaita buvo paskelbta 2 valandos ir 49 minutes, ne 17:00 UTC
Prognozė galioja nuo 20 metu 18 UTC su 21 metu 18 UTC
Vėjas 10 kt iš Pietryčių
Matomumas 10 km arba daugiau
Mažai debesys ne aukštis 4000 ft
Išsisklaidę debesys ne aukštis 10000 ft

TAF: SAME 201700Z 2018/2118 14010KT 9999 FEW040 SCT100 TX29/2020Z TN18/2110Z

Orai ataskaitas ir orų prognozės (METAR, TAF).

turimą stotys yra geltonos ir raudonos taškus žemėlapyje.

Perkelti pele per norėdami pamatyti stoties vardą.

Tada spustelėkite, norėdami matyti oro stebėjimo ir prognozės.

Norėdami pakeisti žemėlapį: spustelėkite ant žalios mygtukų su juodo kryžiaus žemyn,; žalią mygtuką su brūkšneliu, jei norite nutolinti; arba žalių rodyklių gretimoms žemėlapius.


METAR-TAF: